createdAt,value
2023-04-15T00:00:35.523Z,8.43
2023-04-15T00:01:38.067Z,10.45
2023-04-15T00:02:40.923Z,11.55
2023-04-15T00:03:43.953Z,11.07
2023-04-15T00:04:48.072Z,10.20
2023-04-15T00:05:50.904Z,10.85
2023-04-15T00:06:54.685Z,10.68
2023-04-15T00:07:57.375Z,15.95
2023-04-15T00:09:00.280Z,9.82
2023-04-15T00:10:04.470Z,14.57
2023-04-15T00:11:07.045Z,10.05
2023-04-15T00:12:09.806Z,8.73
2023-04-15T00:13:12.606Z,7.90
2023-04-15T00:14:15.753Z,9.20
2023-04-15T00:15:18.583Z,8.98
2023-04-15T00:16:21.372Z,7.82
2023-04-15T00:17:23.917Z,7.60
2023-04-15T00:18:27.099Z,7.68
2023-04-15T00:19:30.868Z,8.07
2023-04-15T00:20:33.987Z,10.88
2023-04-15T00:21:36.657Z,8.77
2023-04-15T00:22:39.364Z,10.35
2023-04-15T00:23:42.019Z,12.07
2023-04-15T00:24:44.753Z,12.23
2023-04-15T00:25:47.493Z,9.35
2023-04-15T00:26:50.054Z,6.85
2023-04-15T00:27:52.675Z,9.82
2023-04-15T00:28:55.316Z,8.30
2023-04-15T00:29:58.309Z,8.57
2023-04-15T00:31:00.923Z,9.32
2023-04-15T00:32:03.532Z,7.40
2023-04-15T00:33:06.830Z,11.23
2023-04-15T00:34:09.614Z,8.95
2023-04-15T00:35:12.263Z,7.45
2023-04-15T00:36:14.840Z,8.07
2023-04-15T00:37:17.399Z,7.90
2023-04-15T00:38:20.193Z,7.20
2023-04-15T00:39:22.994Z,8.43
2023-04-15T00:40:26.262Z,9.93
2023-04-15T00:41:29.033Z,7.57
2023-04-15T00:42:31.797Z,11.13
2023-04-15T00:43:34.402Z,8.95
2023-04-15T00:44:37.069Z,8.07
2023-04-15T00:45:39.660Z,6.80
2023-04-15T00:46:44.329Z,9.60
2023-04-15T00:47:47.057Z,8.25
2023-04-15T00:48:50.709Z,8.35
2023-04-15T00:49:53.269Z,10.52
2023-04-15T00:50:56.059Z,8.25
2023-04-15T00:51:58.963Z,7.30
2023-04-15T00:53:01.486Z,12.27
2023-04-15T00:54:05.270Z,8.15
2023-04-15T00:55:08.837Z,9.77
2023-04-15T00:56:11.637Z,7.78
2023-04-15T00:57:14.267Z,8.15
2023-04-15T00:58:17.464Z,9.65
2023-04-15T00:59:20.739Z,7.40
2023-04-15T01:00:23.451Z,10.40
2023-04-15T01:01:26.998Z,8.77
2023-04-15T01:02:29.789Z,7.93
2023-04-15T01:03:32.629Z,10.52
2023-04-15T01:04:36.844Z,9.88
2023-04-15T01:05:39.544Z,8.77
2023-04-15T01:06:42.373Z,6.90
2023-04-15T01:07:47.916Z,8.10
2023-04-15T01:08:50.944Z,8.15
2023-04-15T01:09:53.648Z,8.57
2023-04-15T01:10:57.934Z,12.45
2023-04-15T01:12:00.453Z,9.50
2023-04-15T01:13:03.583Z,7.70
2023-04-15T01:14:06.082Z,7.97
2023-04-15T01:15:11.063Z,8.02
2023-04-15T01:16:14.557Z,8.30
2023-04-15T01:17:19.161Z,6.18
2023-04-15T01:18:22.141Z,10.38
2023-04-15T01:19:24.761Z,8.40
2023-04-15T01:20:27.573Z,6.45
2023-04-15T01:21:30.337Z,12.13
2023-04-15T01:22:34.486Z,9.07
2023-04-15T01:23:41.214Z,6.47
2023-04-15T01:25:08.350Z,11.40
2023-04-15T01:26:11.251Z,8.45
2023-04-15T01:27:14.921Z,7.28
2023-04-15T01:28:17.489Z,7.28
2023-04-15T01:29:20.086Z,7.07
2023-04-15T01:30:22.628Z,8.85
2023-04-15T01:31:25.196Z,6.82
2023-04-15T01:32:28.104Z,6.68
2023-04-15T01:33:30.715Z,8.27
2023-04-15T01:34:35.652Z,7.35
2023-04-15T01:35:39.003Z,8.82
2023-04-15T01:36:42.059Z,7.65
2023-04-15T01:37:45.176Z,8.90
2023-04-15T01:38:47.977Z,7.40
2023-04-15T01:39:50.766Z,7.43
2023-04-15T01:40:53.396Z,7.45
2023-04-15T01:41:55.875Z,8.70
2023-04-15T01:43:00.595Z,13.52
2023-04-15T01:44:03.268Z,8.82
2023-04-15T01:45:07.271Z,8.27
2023-04-15T01:46:09.933Z,12.95
2023-04-15T01:47:12.632Z,8.20
2023-04-15T01:48:15.249Z,7.28
2023-04-15T01:49:17.867Z,8.00
2023-04-15T01:50:20.983Z,9.75
2023-04-15T01:51:24.181Z,8.25
2023-04-15T01:52:26.744Z,6.97
2023-04-15T01:53:29.531Z,7.93
2023-04-15T01:54:32.179Z,9.13
2023-04-15T01:55:34.740Z,6.55
2023-04-15T01:56:37.439Z,7.40
2023-04-15T01:57:40.343Z,9.60
2023-04-15T01:58:42.867Z,9.05
2023-04-15T01:59:47.081Z,11.82
2023-04-15T02:00:50.899Z,7.65
2023-04-15T02:01:53.634Z,9.48
2023-04-15T02:02:56.332Z,9.75
2023-04-15T02:04:01.321Z,7.35
2023-04-15T02:05:05.696Z,10.95
2023-04-15T02:06:08.289Z,7.03
2023-04-15T02:07:10.880Z,9.75
2023-04-15T02:08:13.542Z,9.40
2023-04-15T02:09:16.060Z,8.73
2023-04-15T02:10:21.892Z,7.65
2023-04-15T02:11:24.663Z,8.25
2023-04-15T02:12:28.580Z,9.95
2023-04-15T02:13:31.149Z,10.13
2023-04-15T02:14:33.608Z,8.50
2023-04-15T02:15:36.113Z,7.35
2023-04-15T02:16:41.351Z,8.10
2023-04-15T02:17:46.164Z,9.98
2023-04-15T02:18:52.199Z,9.40
2023-04-15T02:19:56.907Z,8.65
2023-04-15T02:21:00.610Z,9.85
2023-04-15T02:22:03.242Z,7.85
2023-04-15T02:23:07.450Z,10.27
2023-04-15T02:24:10.183Z,9.02
2023-04-15T02:25:12.659Z,8.77
2023-04-15T02:26:15.485Z,9.73
2023-04-15T02:27:18.767Z,7.88
2023-04-15T02:28:21.942Z,10.80
2023-04-15T02:29:24.627Z,10.85
2023-04-15T02:30:27.334Z,8.18
2023-04-15T02:31:30.098Z,7.30
2023-04-15T02:32:35.154Z,9.95
2023-04-15T02:33:37.966Z,9.38
2023-04-15T02:34:42.799Z,7.10
2023-04-15T02:35:45.888Z,8.02
2023-04-15T02:36:49.785Z,12.18
2023-04-15T02:37:52.591Z,8.60
2023-04-15T02:38:55.229Z,7.97
2023-04-15T02:39:58.781Z,7.88
2023-04-15T02:41:01.816Z,9.93
2023-04-15T02:42:06.196Z,8.85
2023-04-15T02:43:08.730Z,9.57
2023-04-15T02:44:13.053Z,11.20
2023-04-15T02:45:16.256Z,8.32
2023-04-15T02:46:19.954Z,8.52
2023-04-15T02:47:23.518Z,11.93
2023-04-15T02:48:26.176Z,10.13
2023-04-15T02:49:31.006Z,10.57
2023-04-15T02:50:33.916Z,9.10
2023-04-15T02:51:36.458Z,9.50
2023-04-15T02:52:42.913Z,9.50
2023-04-15T02:53:49.738Z,8.77
2023-04-15T02:54:53.423Z,8.30
2023-04-15T02:55:55.929Z,10.18
2023-04-15T02:56:58.611Z,8.93
2023-04-15T02:58:01.274Z,8.90
2023-04-15T02:59:04.864Z,8.38
2023-04-15T03:00:09.729Z,10.82
2023-04-15T03:01:14.915Z,10.32
2023-04-15T03:02:17.882Z,10.38
2023-04-15T03:03:20.938Z,12.63
2023-04-15T03:04:23.601Z,8.23
2023-04-15T03:05:26.640Z,9.25
2023-04-15T03:06:29.275Z,9.57
2023-04-15T03:07:32.173Z,9.75
2023-04-15T03:08:35.830Z,9.93
2023-04-15T03:09:40.470Z,9.68
2023-04-15T03:10:43.384Z,9.77
2023-04-15T03:11:46.028Z,9.65
2023-04-15T03:12:49.084Z,9.30
2023-04-15T03:13:56.871Z,12.10
2023-04-15T03:15:08.218Z,11.43
2023-04-15T03:16:14.541Z,9.70
2023-04-15T03:17:18.143Z,10.75
2023-04-15T03:18:21.544Z,11.40
2023-04-15T03:19:24.231Z,9.57
2023-04-15T03:20:26.779Z,9.05
2023-04-15T03:21:29.396Z,10.77
2023-04-15T03:22:33.133Z,11.18
2023-04-15T03:23:35.963Z,13.52
2023-04-15T03:24:38.450Z,9.25
2023-04-15T03:25:41.109Z,12.35
2023-04-15T03:26:43.725Z,10.25
2023-04-15T03:27:50.123Z,11.18
2023-04-15T03:28:53.404Z,11.30
2023-04-15T03:29:56.887Z,11.40
2023-04-15T03:31:01.285Z,9.07
2023-04-15T03:32:04.329Z,10.40
2023-04-15T03:33:09.785Z,9.15
2023-04-15T03:34:13.176Z,8.38
2023-04-15T03:35:15.893Z,12.50
2023-04-15T03:36:18.441Z,10.13
2023-04-15T03:37:21.173Z,7.53
2023-04-15T03:38:23.748Z,10.00
2023-04-15T03:39:26.326Z,12.20
2023-04-15T03:40:29.039Z,10.43
2023-04-15T03:41:33.035Z,10.90
2023-04-15T03:42:35.595Z,10.98
2023-04-15T03:43:38.186Z,11.02
2023-04-15T03:44:40.790Z,11.65
2023-04-15T03:45:43.295Z,10.25
2023-04-15T03:46:45.912Z,10.15
2023-04-15T03:47:49.916Z,10.05
2023-04-15T03:48:52.735Z,9.88
2023-04-15T03:49:55.278Z,9.98
2023-04-15T03:50:57.819Z,9.55
2023-04-15T03:52:00.631Z,15.88
2023-04-15T03:53:03.108Z,10.07
2023-04-15T03:54:05.880Z,9.35
2023-04-15T03:55:09.441Z,11.65
2023-04-15T03:56:11.947Z,10.32
2023-04-15T03:57:14.448Z,10.82
2023-04-15T03:58:16.882Z,11.43
2023-04-15T03:59:19.329Z,10.35
2023-04-15T04:00:21.888Z,10.90
2023-04-15T04:01:24.578Z,12.82
2023-04-15T04:02:28.432Z,8.10
2023-04-15T04:03:31.888Z,12.05
2023-04-15T04:04:34.605Z,9.55
2023-04-15T04:05:39.095Z,9.07
2023-04-15T04:06:41.713Z,10.60
2023-04-15T04:07:44.266Z,11.75
2023-04-15T04:08:46.792Z,11.90
2023-04-15T04:09:49.324Z,9.43
2023-04-15T04:10:51.737Z,11.95
2023-04-15T04:11:54.342Z,14.13
2023-04-15T04:12:56.959Z,13.60
2023-04-15T04:13:59.666Z,10.68
2023-04-15T04:15:02.379Z,10.32
2023-04-15T04:16:05.295Z,8.48
2023-04-15T04:17:08.452Z,11.10
2023-04-15T04:18:11.424Z,11.30
2023-04-15T04:19:15.005Z,12.63
2023-04-15T04:20:17.546Z,9.60
2023-04-15T04:21:21.086Z,11.95
2023-04-15T04:22:24.583Z,8.45
2023-04-15T04:23:27.226Z,10.60
2023-04-15T04:24:29.739Z,9.65
2023-04-15T04:25:32.716Z,13.13
2023-04-15T04:26:35.288Z,8.20
2023-04-15T04:27:38.132Z,11.70
2023-04-15T04:28:40.756Z,9.65
2023-04-15T04:29:43.579Z,8.38
2023-04-15T04:30:46.217Z,10.45
2023-04-15T04:31:48.893Z,14.18
2023-04-15T04:32:51.753Z,10.75
2023-04-15T04:33:54.396Z,14.77
2023-04-15T04:34:56.909Z,12.85
2023-04-15T04:35:59.478Z,10.40
2023-04-15T04:37:02.049Z,13.05
2023-04-15T04:38:04.968Z,9.65
2023-04-15T04:39:07.994Z,9.50
2023-04-15T04:40:11.256Z,10.43
2023-04-15T04:41:13.859Z,10.48
2023-04-15T04:42:16.744Z,9.95
2023-04-15T04:43:19.235Z,11.73
2023-04-15T04:44:22.590Z,8.52
2023-04-15T04:45:25.161Z,11.90
2023-04-15T04:46:27.858Z,9.43
2023-04-15T04:47:30.499Z,9.07
2023-04-15T04:48:33.429Z,14.27
2023-04-15T04:49:35.961Z,9.50
2023-04-15T04:50:38.512Z,11.60
2023-04-15T04:51:41.247Z,14.35
2023-04-15T04:52:43.948Z,11.57
2023-04-15T04:53:46.730Z,11.07
2023-04-15T04:54:49.467Z,11.73
2023-04-15T04:55:52.367Z,10.30
2023-04-15T04:56:54.902Z,11.38
2023-04-15T04:57:57.476Z,11.90
2023-04-15T04:59:00.281Z,10.57
2023-04-15T05:00:05.103Z,10.25
2023-04-15T05:01:07.943Z,10.18
2023-04-15T05:02:11.005Z,12.13
2023-04-15T05:03:13.897Z,10.65
2023-04-15T05:04:16.707Z,10.30
2023-04-15T05:05:19.601Z,9.70
2023-04-15T05:06:22.231Z,9.45
2023-04-15T05:07:24.832Z,8.98
2023-04-15T05:08:27.368Z,9.13
2023-04-15T05:09:32.244Z,8.52
2023-04-15T05:10:34.758Z,9.50
2023-04-15T05:11:37.421Z,11.18
2023-04-15T05:12:40.121Z,9.25
2023-04-15T05:13:42.781Z,8.82
2023-04-15T05:14:46.857Z,9.50
2023-04-15T05:15:49.509Z,8.93
2023-04-15T05:16:52.410Z,12.15
2023-04-15T05:17:55.261Z,9.32
2023-04-15T05:18:57.849Z,9.60
2023-04-15T05:20:00.452Z,10.13
2023-04-15T05:21:03.062Z,7.10
2023-04-15T05:22:05.591Z,13.85
2023-04-15T05:23:08.385Z,8.75
2023-04-15T05:24:10.947Z,9.20
2023-04-15T05:25:14.101Z,7.50
2023-04-15T05:26:16.649Z,11.35
2023-04-15T05:27:19.353Z,6.78
2023-04-15T05:28:21.963Z,8.43
2023-04-15T05:29:24.403Z,8.68
2023-04-15T05:30:26.994Z,8.82
2023-04-15T05:31:29.667Z,8.32
2023-04-15T05:32:32.307Z,7.53
2023-04-15T05:33:34.972Z,10.60
2023-04-15T05:34:37.654Z,9.07
2023-04-15T05:35:40.214Z,9.82
2023-04-15T05:36:43.034Z,9.25
2023-04-15T05:37:46.123Z,10.73
2023-04-15T05:38:48.577Z,8.70
2023-04-15T05:39:51.261Z,10.07
2023-04-15T05:40:53.870Z,10.65
2023-04-15T05:41:57.686Z,10.40
2023-04-15T05:43:00.211Z,9.73
2023-04-15T05:44:02.789Z,10.32
2023-04-15T05:45:09.136Z,9.63
2023-04-15T05:46:11.727Z,9.02
2023-04-15T05:47:14.281Z,11.98
2023-04-15T05:48:16.795Z,7.90
2023-04-15T05:49:19.435Z,9.32
2023-04-15T05:50:22.127Z,8.00
2023-04-15T05:51:24.754Z,9.85
2023-04-15T05:52:27.432Z,9.35
2023-04-15T05:53:29.894Z,9.85
2023-04-15T05:54:32.500Z,9.30
2023-04-15T05:55:35.104Z,9.05
2023-04-15T05:56:37.711Z,9.15
2023-04-15T05:57:40.767Z,8.60
2023-04-15T05:58:43.285Z,9.68
2023-04-15T05:59:46.039Z,9.07
2023-04-15T06:00:48.491Z,10.05
2023-04-15T06:01:52.305Z,8.77
2023-04-15T06:02:56.150Z,10.15
2023-04-15T06:03:58.740Z,9.07
2023-04-15T06:05:01.568Z,14.80
2023-04-15T06:06:04.455Z,10.20
2023-04-15T06:07:07.111Z,10.15
2023-04-15T06:08:09.875Z,7.82
2023-04-15T06:09:12.419Z,8.25
2023-04-15T06:10:14.875Z,7.55
2023-04-15T06:11:17.405Z,10.73
2023-04-15T06:12:19.893Z,10.27
2023-04-15T06:13:22.474Z,9.20
2023-04-15T06:14:25.076Z,8.98
2023-04-15T06:15:27.610Z,8.95
2023-04-15T06:16:30.398Z,9.60
2023-04-15T06:17:33.091Z,8.52
2023-04-15T06:18:35.656Z,9.57
2023-04-15T06:19:38.320Z,9.68
2023-04-15T06:20:41.806Z,8.25
2023-04-15T06:21:45.055Z,8.95
2023-04-15T06:22:47.708Z,10.00
2023-04-15T06:23:50.523Z,9.90
2023-04-15T06:24:53.270Z,10.77
2023-04-15T06:25:55.819Z,8.43
2023-04-15T06:26:58.425Z,9.30
2023-04-15T06:28:01.071Z,9.32
2023-04-15T06:29:03.878Z,8.38
2023-04-15T06:30:08.721Z,10.93
2023-04-15T06:31:11.172Z,10.13
2023-04-15T06:32:13.805Z,8.57
2023-04-15T06:33:16.624Z,9.90
2023-04-15T06:34:19.304Z,9.55
2023-04-15T06:35:22.220Z,7.60
2023-04-15T06:36:24.782Z,9.38
2023-04-15T06:37:27.283Z,10.07
2023-04-15T06:38:29.720Z,7.70
2023-04-15T06:39:32.645Z,9.57
2023-04-15T06:40:35.540Z,10.70
2023-04-15T06:41:38.091Z,8.90
2023-04-15T06:42:40.780Z,11.18
2023-04-15T06:43:43.503Z,8.27
2023-04-15T06:44:46.113Z,9.85
2023-04-15T06:45:48.661Z,10.02
2023-04-15T06:46:51.174Z,14.52
2023-04-15T06:47:53.728Z,7.85
2023-04-15T06:48:56.425Z,10.60
2023-04-15T06:49:58.927Z,7.07
2023-04-15T06:51:01.659Z,8.18
2023-04-15T06:52:05.096Z,8.18
2023-04-15T06:53:07.972Z,8.10
2023-04-15T06:54:10.534Z,8.73
2023-04-15T06:55:13.291Z,9.15
2023-04-15T06:56:15.939Z,8.50
2023-04-15T06:57:18.412Z,8.40
2023-04-15T06:58:21.197Z,8.02
2023-04-15T06:59:24.308Z,10.23
2023-04-15T07:00:30.869Z,10.25
2023-04-15T07:01:33.762Z,7.82
2023-04-15T07:02:36.979Z,8.02
2023-04-15T07:03:39.655Z,9.27
2023-04-15T07:04:42.287Z,9.18
2023-04-15T07:05:44.903Z,8.73
2023-04-15T07:06:47.406Z,8.60
2023-04-15T07:07:50.348Z,10.05
2023-04-15T07:08:52.891Z,11.02
2023-04-15T07:09:55.455Z,9.55
2023-04-15T07:10:58.062Z,6.80
2023-04-15T07:12:00.788Z,12.25
2023-04-15T07:13:05.988Z,12.15
2023-04-15T07:14:08.512Z,10.43
2023-04-15T07:15:11.390Z,7.30
2023-04-15T07:16:13.935Z,7.68
2023-04-15T07:17:17.108Z,10.77
2023-04-15T07:18:19.665Z,9.73
2023-04-15T07:19:22.493Z,10.70
2023-04-15T07:20:25.748Z,7.15
2023-04-15T07:21:28.227Z,8.95
2023-04-15T07:22:31.126Z,8.98
2023-04-15T07:23:33.772Z,10.20
2023-04-15T07:24:36.489Z,7.45
2023-04-15T07:25:39.136Z,10.88
2023-04-15T07:26:41.834Z,9.05
2023-04-15T07:27:44.422Z,8.82
2023-04-15T07:28:47.565Z,7.82
2023-04-15T07:29:52.079Z,6.82
2023-04-15T07:30:55.033Z,8.57
2023-04-15T07:31:57.751Z,8.75
2023-04-15T07:33:01.307Z,8.82
2023-04-15T07:34:05.268Z,7.47
2023-04-15T07:35:08.476Z,6.72
2023-04-15T07:36:11.123Z,11.95
2023-04-15T07:37:13.865Z,6.78
2023-04-15T07:38:16.756Z,7.35
2023-04-15T07:39:22.400Z,11.00
2023-04-15T07:40:25.109Z,7.75
2023-04-15T07:41:27.858Z,8.85
2023-04-15T07:42:30.587Z,7.68
2023-04-15T07:43:33.439Z,7.63
2023-04-15T07:44:36.019Z,8.07
2023-04-15T07:45:38.643Z,10.65
2023-04-15T07:46:41.283Z,8.18
2023-04-15T07:47:43.934Z,7.88
2023-04-15T07:48:46.682Z,5.90
2023-04-15T07:49:49.354Z,7.55
2023-04-15T07:50:51.938Z,6.60
2023-04-15T07:51:54.963Z,6.38
2023-04-15T07:52:58.021Z,7.80
2023-04-15T07:54:00.546Z,13.48
2023-04-15T07:55:07.738Z,8.73
2023-04-15T07:56:10.575Z,8.90
2023-04-15T07:57:13.152Z,8.65
2023-04-15T07:58:15.803Z,6.60
2023-04-15T07:59:18.368Z,8.77
2023-04-15T08:00:20.966Z,7.72
2023-04-15T08:01:23.627Z,6.82
2023-04-15T08:02:26.773Z,6.30
2023-04-15T08:03:38.458Z,6.20
2023-04-15T08:04:41.926Z,6.38
2023-04-15T08:05:45.598Z,7.00
2023-04-15T08:06:49.932Z,10.38
2023-04-15T08:07:52.713Z,6.15
2023-04-15T08:08:55.741Z,5.55
2023-04-15T08:09:58.256Z,6.20
2023-04-15T08:11:00.782Z,6.03
2023-04-15T08:12:04.073Z,6.60
2023-04-15T08:13:06.741Z,7.95
2023-04-15T08:14:09.254Z,5.38
2023-04-15T08:15:13.196Z,6.53
2023-04-15T08:16:24.648Z,5.40
2023-04-15T08:17:27.240Z,5.25
2023-04-15T08:18:29.733Z,6.28
2023-04-15T08:19:32.472Z,6.38
2023-04-15T08:20:35.205Z,5.35
2023-04-15T08:21:37.717Z,5.63
2023-04-15T08:22:41.055Z,5.85
2023-04-15T08:23:44.569Z,5.05
2023-04-15T08:24:47.296Z,7.55
2023-04-15T08:25:49.838Z,5.85
2023-04-15T08:26:53.920Z,5.57
2023-04-15T08:27:58.027Z,6.13
2023-04-15T08:29:00.963Z,5.63
2023-04-15T08:30:06.852Z,8.27
2023-04-15T08:31:09.835Z,4.28
2023-04-15T08:32:12.752Z,4.82
2023-04-15T08:33:15.264Z,4.68
2023-04-15T08:34:18.258Z,4.18
2023-04-15T08:35:21.237Z,5.78
2023-04-15T08:36:23.777Z,5.93
2023-04-15T08:37:27.035Z,7.03
2023-04-15T08:38:29.523Z,5.15
2023-04-15T08:39:31.989Z,5.72
2023-04-15T08:40:42.021Z,7.28
2023-04-15T08:41:52.678Z,5.93
2023-04-15T08:42:57.731Z,5.55
2023-04-15T08:44:05.092Z,4.75
2023-04-15T08:45:11.178Z,5.32
2023-04-15T08:46:13.776Z,6.65
2023-04-15T08:47:21.715Z,4.45
2023-04-15T08:48:24.664Z,4.85
2023-04-15T08:49:28.603Z,3.80
2023-04-15T08:50:32.579Z,4.35
2023-04-15T08:51:35.145Z,4.78
2023-04-15T08:52:37.836Z,5.45
2023-04-15T08:53:40.569Z,6.07
2023-04-15T08:54:43.181Z,7.32
2023-04-15T08:55:46.808Z,6.13
2023-04-15T08:56:50.748Z,4.65
2023-04-15T08:57:53.473Z,8.05
2023-04-15T08:58:56.275Z,6.90
2023-04-15T08:59:59.312Z,4.03
2023-04-15T09:01:01.975Z,8.20
2023-04-15T09:02:05.189Z,5.47
2023-04-15T09:03:08.956Z,6.28
2023-04-15T09:04:12.641Z,5.45
2023-04-15T09:05:16.569Z,4.50
2023-04-15T09:06:19.183Z,6.35
2023-04-15T09:07:21.822Z,4.47
2023-04-15T09:08:24.402Z,3.47
2023-04-15T09:09:28.091Z,6.00
2023-04-15T09:10:30.976Z,5.45
2023-04-15T09:11:33.513Z,5.07
2023-04-15T09:12:37.047Z,4.53
2023-04-15T09:13:40.098Z,3.90
2023-04-15T09:14:43.489Z,4.32
2023-04-15T09:15:46.078Z,4.05
2023-04-15T09:16:58.829Z,4.03
2023-04-15T09:18:01.597Z,4.47
2023-04-15T09:19:21.914Z,5.38
2023-04-15T09:20:24.660Z,5.18
2023-04-15T09:21:27.921Z,3.92
2023-04-15T09:22:33.373Z,5.45
2023-04-15T09:23:37.008Z,4.47
2023-04-15T09:24:42.305Z,5.28
2023-04-15T09:25:45.618Z,4.45
2023-04-15T09:26:48.371Z,5.97
2023-04-15T09:27:58.012Z,4.35
2023-04-15T09:29:15.432Z,5.25
2023-04-15T09:30:18.651Z,6.63
2023-04-15T09:31:30.309Z,5.82
2023-04-15T09:32:32.768Z,4.03
2023-04-15T09:33:35.423Z,3.75
2023-04-15T09:34:38.501Z,3.90
2023-04-15T09:35:41.506Z,5.53
2023-04-15T09:36:49.098Z,2.78
2023-04-15T09:37:53.814Z,4.10
2023-04-15T09:38:59.963Z,3.80
2023-04-15T09:40:02.614Z,4.45
2023-04-15T09:41:19.654Z,4.53
2023-04-15T09:42:25.198Z,4.22
2023-04-15T09:43:40.806Z,4.60
2023-04-15T09:44:43.761Z,2.95
2023-04-15T09:45:53.694Z,6.07
2023-04-15T09:46:56.193Z,4.18
2023-04-15T09:48:00.056Z,6.93
2023-04-15T09:49:09.696Z,3.47
2023-04-15T09:50:12.149Z,3.05
2023-04-15T09:51:15.513Z,4.22
2023-04-15T09:52:17.908Z,3.80
2023-04-15T09:53:22.013Z,3.75
2023-04-15T09:54:24.571Z,3.85
2023-04-15T09:55:27.337Z,3.97
2023-04-15T09:56:36.369Z,7.10
2023-04-15T09:57:41.227Z,4.20
2023-04-15T09:58:44.334Z,3.50
2023-04-15T09:59:46.837Z,7.88
2023-04-15T10:00:51.691Z,4.32
2023-04-15T10:01:54.262Z,4.38
2023-04-15T10:02:57.066Z,3.40
2023-04-15T10:04:05.900Z,3.08
2023-04-15T10:05:12.093Z,4.63
2023-04-15T10:06:15.088Z,3.33
2023-04-15T10:07:20.648Z,3.38
2023-04-15T10:08:26.242Z,3.70
2023-04-15T10:09:29.034Z,3.55
2023-04-15T10:10:33.517Z,4.28
2023-04-15T10:11:36.266Z,2.55
2023-04-15T10:12:40.818Z,3.13
2023-04-15T10:13:43.728Z,3.05
2023-04-15T10:14:59.550Z,3.42
2023-04-15T10:16:13.023Z,3.40
2023-04-15T10:17:18.561Z,5.25
2023-04-15T10:18:21.809Z,4.22
2023-04-15T10:19:26.182Z,5.40
2023-04-15T10:20:30.027Z,4.10
2023-04-15T10:21:32.586Z,3.15
2023-04-15T10:22:38.109Z,2.22
2023-04-15T10:23:41.537Z,6.90
2023-04-15T10:24:45.430Z,3.25
2023-04-15T10:25:49.468Z,3.50
2023-04-15T10:26:52.768Z,4.78
2023-04-15T10:27:56.514Z,2.50
2023-04-15T10:29:00.330Z,3.35
2023-04-15T10:30:03.906Z,3.55
2023-04-15T10:31:07.404Z,3.70
2023-04-15T10:32:10.816Z,3.58
2023-04-15T10:33:13.716Z,4.72
2023-04-15T10:34:16.677Z,3.22
2023-04-15T10:35:20.755Z,3.05
2023-04-15T10:36:23.568Z,4.53
2023-04-15T10:37:39.002Z,3.03
2023-04-15T10:38:43.386Z,4.03
2023-04-15T10:39:46.063Z,3.78
2023-04-15T10:40:50.756Z,4.00
2023-04-15T10:42:11.343Z,3.47
2023-04-15T10:43:25.629Z,6.28
2023-04-15T10:44:28.220Z,4.85
2023-04-15T10:45:37.943Z,3.60
2023-04-15T10:46:45.144Z,2.58
2023-04-15T10:47:53.150Z,2.55
2023-04-15T10:48:56.086Z,3.13
2023-04-15T10:50:00.476Z,2.83
2023-04-15T10:51:05.063Z,6.00
2023-04-15T10:52:08.642Z,4.22
2023-04-15T10:53:11.306Z,4.90
2023-04-15T10:54:15.985Z,2.97
2023-04-15T10:55:26.232Z,4.18
2023-04-15T10:56:30.258Z,2.70
2023-04-15T10:57:38.728Z,3.33
2023-04-15T10:58:45.551Z,5.15
2023-04-15T10:59:59.689Z,4.60
2023-04-15T11:01:02.826Z,3.50
2023-04-15T11:02:07.378Z,5.65
2023-04-15T11:03:10.647Z,3.85
2023-04-15T11:04:13.555Z,5.38
2023-04-15T11:05:17.782Z,3.38
2023-04-15T11:06:20.905Z,3.72
2023-04-15T11:07:46.720Z,3.67
2023-04-15T11:09:02.445Z,3.25
2023-04-15T11:10:31.189Z,4.05
2023-04-15T11:12:09.852Z,4.68
2023-04-15T11:13:12.462Z,2.90
2023-04-15T11:14:17.711Z,2.60
2023-04-15T11:15:33.798Z,3.58
2023-04-15T11:16:45.030Z,3.22
2023-04-15T11:17:47.839Z,2.90
2023-04-15T11:18:56.788Z,2.63
2023-04-15T11:19:59.339Z,3.15
2023-04-15T11:21:06.374Z,3.15
2023-04-15T11:22:12.409Z,3.30
2023-04-15T11:23:16.113Z,3.10
2023-04-15T11:24:28.791Z,2.85
2023-04-15T11:25:33.589Z,3.00
2023-04-15T11:26:36.620Z,4.85
2023-04-15T11:27:39.200Z,3.20
2023-04-15T11:28:43.548Z,3.17
2023-04-15T11:29:46.010Z,2.42
2023-04-15T11:30:48.569Z,4.07
2023-04-15T11:31:51.407Z,4.32
2023-04-15T11:32:56.250Z,4.63
2023-04-15T11:34:01.637Z,3.28
2023-04-15T11:35:04.702Z,3.13
2023-04-15T11:36:08.037Z,3.92
2023-04-15T11:37:10.812Z,2.67
2023-04-15T11:38:15.559Z,3.25
2023-04-15T11:39:18.290Z,4.32
2023-04-15T11:40:30.827Z,2.67
2023-04-15T11:41:33.385Z,3.13
2023-04-15T11:42:48.684Z,3.30
2023-04-15T11:43:53.014Z,4.05
2023-04-15T11:45:15.467Z,3.28
2023-04-15T11:46:18.219Z,5.68
2023-04-15T11:47:24.644Z,3.50
2023-04-15T11:48:29.188Z,4.82
2023-04-15T11:49:34.146Z,3.00
2023-04-15T11:50:38.045Z,3.42
2023-04-15T11:51:40.609Z,3.42
2023-04-15T11:52:55.532Z,8.00
2023-04-15T11:53:58.503Z,4.28
2023-04-15T11:55:04.542Z,2.97
2023-04-15T11:56:08.792Z,3.75
2023-04-15T11:57:11.427Z,2.67
2023-04-15T11:58:18.786Z,3.53
2023-04-15T11:59:21.430Z,3.85
2023-04-15T12:00:25.144Z,3.92
2023-04-15T12:01:39.449Z,3.15
2023-04-15T12:02:42.182Z,5.20
2023-04-15T12:03:49.622Z,3.00
2023-04-15T12:05:04.163Z,2.65
2023-04-15T12:06:25.663Z,2.50
2023-04-15T12:07:28.769Z,3.42
2023-04-15T12:08:55.830Z,3.47
2023-04-15T12:09:58.613Z,2.90
2023-04-15T12:11:01.085Z,2.67
2023-04-15T12:12:03.769Z,3.13
2023-04-15T12:13:10.251Z,4.40
2023-04-15T12:14:28.267Z,4.03
2023-04-15T12:15:31.000Z,2.47
2023-04-15T12:16:49.138Z,2.97
2023-04-15T12:17:55.772Z,2.90
2023-04-15T12:18:59.683Z,2.97
2023-04-15T12:20:02.256Z,3.88
2023-04-15T12:21:14.112Z,2.70
2023-04-15T12:22:17.549Z,2.65
2023-04-15T12:23:20.846Z,3.33
2023-04-15T12:24:23.780Z,2.30
2023-04-15T12:25:36.171Z,2.80
2023-04-15T12:26:58.546Z,3.88
2023-04-15T12:28:01.174Z,3.30
2023-04-15T12:29:08.338Z,3.70
2023-04-15T12:30:11.887Z,2.30
2023-04-15T12:31:14.909Z,2.58
2023-04-15T12:32:20.818Z,2.83
2023-04-15T12:33:23.458Z,3.03
2023-04-15T12:34:55.302Z,3.80
2023-04-15T12:35:58.168Z,2.78
2023-04-15T12:37:02.368Z,3.58
2023-04-15T12:38:05.037Z,3.67
2023-04-15T12:39:07.581Z,3.85
2023-04-15T12:40:10.557Z,5.55
2023-04-15T12:41:13.388Z,2.65
2023-04-15T12:42:16.945Z,2.83
2023-04-15T12:43:19.559Z,2.35
2023-04-15T12:44:24.123Z,3.13
2023-04-15T12:45:29.409Z,2.95
2023-04-15T12:46:32.831Z,2.45
2023-04-15T12:47:35.533Z,3.33
2023-04-15T12:48:38.288Z,2.30
2023-04-15T12:49:41.317Z,5.55
2023-04-15T12:50:45.392Z,3.25
2023-04-15T12:51:53.038Z,2.95
2023-04-15T12:52:55.587Z,3.40
2023-04-15T12:53:58.730Z,2.45
2023-04-15T12:55:01.280Z,2.95
2023-04-15T12:56:03.981Z,1.98
2023-04-15T12:57:07.635Z,2.38
2023-04-15T12:58:11.895Z,2.22
2023-04-15T12:59:15.087Z,2.67
2023-04-15T13:00:18.002Z,4.50
2023-04-15T13:01:21.491Z,3.35
2023-04-15T13:02:25.864Z,2.70
2023-04-15T13:03:28.871Z,3.03
2023-04-15T13:04:32.088Z,3.65
2023-04-15T13:05:37.023Z,2.42
2023-04-15T13:06:39.600Z,2.22
2023-04-15T13:07:42.574Z,2.20
2023-04-15T13:08:57.159Z,2.58
2023-04-15T13:10:00.661Z,2.60
2023-04-15T13:11:03.939Z,2.80
2023-04-15T13:12:06.677Z,3.63
2023-04-15T13:13:09.457Z,1.77
2023-04-15T13:14:13.106Z,2.72
2023-04-15T13:15:16.048Z,2.40
2023-04-15T13:16:19.249Z,2.25
2023-04-15T13:17:22.116Z,3.35
2023-04-15T13:18:24.844Z,2.58
2023-04-15T13:19:27.438Z,2.95
2023-04-15T13:20:30.080Z,1.83
2023-04-15T13:21:35.701Z,3.10
2023-04-15T13:22:38.838Z,2.65
2023-04-15T13:23:44.531Z,2.45
2023-04-15T13:24:47.218Z,3.92
2023-04-15T13:25:49.683Z,2.45
2023-04-15T13:26:53.606Z,3.35
2023-04-15T13:27:57.666Z,4.68
2023-04-15T13:29:02.109Z,4.18
2023-04-15T13:30:06.205Z,4.60
2023-04-15T13:31:09.016Z,3.80
2023-04-15T13:32:11.748Z,2.80
2023-04-15T13:33:14.477Z,4.28
2023-04-15T13:34:19.509Z,2.42
2023-04-15T13:35:22.069Z,2.25
2023-04-15T13:36:24.711Z,2.35
2023-04-15T13:37:28.574Z,1.80
2023-04-15T13:38:31.773Z,3.08
2023-04-15T13:39:34.290Z,3.97
2023-04-15T13:40:36.929Z,4.82
2023-04-15T13:41:40.574Z,3.53
2023-04-15T13:42:43.218Z,2.03
2023-04-15T13:43:46.395Z,1.90
2023-04-15T13:44:50.392Z,2.03
2023-04-15T13:45:52.968Z,2.58
2023-04-15T13:46:55.723Z,1.92
2023-04-15T13:47:58.343Z,2.10
2023-04-15T13:49:01.010Z,1.52
2023-04-15T13:50:03.880Z,1.85
2023-04-15T13:51:06.441Z,3.58
2023-04-15T13:52:09.044Z,2.90
2023-04-15T13:53:12.591Z,2.83
2023-04-15T13:54:15.107Z,3.25
2023-04-15T13:55:19.953Z,2.28
2023-04-15T13:56:24.238Z,2.97
2023-04-15T13:57:26.721Z,2.35
2023-04-15T13:58:29.153Z,2.92
2023-04-15T13:59:33.000Z,2.03
2023-04-15T14:00:37.849Z,3.83
2023-04-15T14:01:41.557Z,2.67
2023-04-15T14:02:44.346Z,1.88
2023-04-15T14:03:47.017Z,2.95
2023-04-15T14:04:50.028Z,2.47
2023-04-15T14:05:56.078Z,2.47
2023-04-15T14:06:59.107Z,3.75